createdAt,value
2018-03-28T00:01:52.190Z,100.00
2018-03-28T00:04:19.931Z,100.00
2018-03-28T00:06:47.714Z,100.00
2018-03-28T00:09:15.316Z,100.00
2018-03-28T00:11:43.084Z,100.00
2018-03-28T00:14:10.870Z,100.00
2018-03-28T00:16:38.540Z,100.00
2018-03-28T00:19:06.320Z,100.00
2018-03-28T00:21:34.102Z,100.00
2018-03-28T00:24:01.880Z,100.00
2018-03-28T00:26:29.660Z,100.00
2018-03-28T00:28:57.435Z,100.00
2018-03-28T00:31:25.106Z,100.00
2018-03-28T00:33:52.843Z,100.00
2018-03-28T00:36:20.611Z,100.00
2018-03-28T00:38:48.444Z,100.00
2018-03-28T00:41:16.116Z,100.00
2018-03-28T00:43:43.998Z,100.00
2018-03-28T00:46:12.650Z,100.00
2018-03-28T00:48:40.383Z,100.00
2018-03-28T00:51:19.725Z,100.00
2018-03-28T00:53:47.404Z,100.00
2018-03-28T00:56:15.320Z,100.00
2018-03-28T00:58:43.058Z,100.00
2018-03-28T01:01:10.801Z,100.00
2018-03-28T01:03:38.508Z,100.00
2018-03-28T01:06:06.291Z,100.00
2018-03-28T01:08:33.960Z,100.00
2018-03-28T01:11:01.847Z,100.00
2018-03-28T01:13:29.586Z,100.00
2018-03-28T01:15:57.402Z,100.00
2018-03-28T01:18:25.096Z,100.00
2018-03-28T01:20:52.853Z,100.00
2018-03-28T01:23:20.632Z,100.00
2018-03-28T01:25:48.413Z,100.00
2018-03-28T01:28:16.086Z,100.00
2018-03-28T01:30:43.867Z,100.00
2018-03-28T01:33:11.590Z,100.00
2018-03-28T01:35:39.384Z,100.00
2018-03-28T01:38:07.197Z,100.00
2018-03-28T01:40:34.977Z,100.00
2018-03-28T01:43:02.862Z,100.00
2018-03-28T01:45:30.633Z,100.00
2018-03-28T01:47:58.377Z,100.00
2018-03-28T01:50:26.192Z,100.00
2018-03-28T01:52:53.867Z,100.00
2018-03-28T01:55:21.616Z,100.00
2018-03-28T01:57:49.319Z,100.00
2018-03-28T02:00:17.049Z,100.00
2018-03-28T02:02:44.871Z,100.00
2018-03-28T02:05:12.652Z,100.00
2018-03-28T02:07:40.533Z,100.00
2018-03-28T02:10:08.204Z,100.00
2018-03-28T02:12:35.983Z,100.00
2018-03-28T02:15:04.592Z,100.00
2018-03-28T02:17:32.470Z,100.00
2018-03-28T02:20:00.138Z,100.00
2018-03-28T02:22:27.952Z,100.00
2018-03-28T02:24:55.645Z,100.00
2018-03-28T02:27:23.477Z,100.00
2018-03-28T02:29:51.151Z,100.00
2018-03-28T02:32:18.824Z,100.00
2018-03-28T02:34:46.707Z,100.00
2018-03-28T02:37:14.451Z,100.00
2018-03-28T02:39:42.362Z,100.00
2018-03-28T02:42:10.449Z,100.00
2018-03-28T02:44:38.202Z,100.00
2018-03-28T02:47:05.979Z,100.00
2018-03-28T02:49:33.883Z,100.00
2018-03-28T02:52:01.661Z,100.00
2018-03-28T02:54:29.542Z,100.00
2018-03-28T02:56:57.286Z,100.00
2018-03-28T02:59:25.103Z,100.00
2018-03-28T03:01:53.283Z,100.00
2018-03-28T03:04:20.962Z,100.00
2018-03-28T03:06:48.739Z,100.00
2018-03-28T03:09:16.990Z,100.00
2018-03-28T03:11:44.804Z,100.00
2018-03-28T03:14:12.582Z,100.00
2018-03-28T03:16:40.256Z,100.00
2018-03-28T03:19:07.942Z,100.00
2018-03-28T03:21:35.814Z,100.00
2018-03-28T03:24:03.592Z,100.00
2018-03-28T03:26:31.372Z,100.00
2018-03-28T03:28:59.148Z,100.00
2018-03-28T03:34:00.805Z,100.00
2018-03-28T03:36:28.629Z,100.00
2018-03-28T03:38:56.404Z,100.00
2018-03-28T03:41:24.189Z,100.00
2018-03-28T03:43:52.493Z,100.00
2018-03-28T03:46:20.236Z,100.00
2018-03-28T03:48:48.032Z,100.00
2018-03-28T03:51:16.108Z,100.00
2018-03-28T03:53:43.887Z,100.00
2018-03-28T03:56:11.631Z,100.00
2018-03-28T03:58:39.373Z,100.00
2018-03-28T04:01:07.288Z,100.00
2018-03-28T04:03:35.101Z,100.00
2018-03-28T04:06:02.786Z,100.00
2018-03-28T04:08:30.558Z,100.00
2018-03-28T04:10:58.438Z,100.00
2018-03-28T04:13:26.111Z,100.00
2018-03-28T04:15:53.838Z,100.00
2018-03-28T04:18:21.568Z,100.00
2018-03-28T04:20:49.321Z,100.00
2018-03-28T04:23:17.088Z,100.00
2018-03-28T04:25:45.214Z,100.00
2018-03-28T04:28:12.883Z,100.00
2018-03-28T04:30:40.613Z,100.00
2018-03-28T04:33:08.260Z,100.00
2018-03-28T04:35:36.092Z,100.00
2018-03-28T04:38:03.861Z,100.00
2018-03-28T04:40:31.674Z,100.00
2018-03-28T04:42:59.341Z,100.00
2018-03-28T04:45:27.124Z,100.00
2018-03-28T04:47:54.878Z,100.00
2018-03-28T04:50:22.784Z,100.00
2018-03-28T04:52:50.535Z,100.00
2018-03-28T04:55:18.303Z,100.00
2018-03-28T04:57:46.114Z,100.00
2018-03-28T05:00:13.863Z,100.00
2018-03-28T05:02:41.602Z,100.00
2018-03-28T05:05:09.349Z,100.00
2018-03-28T05:07:37.089Z,100.00
2018-03-28T05:10:04.903Z,100.00
2018-03-28T05:12:32.680Z,100.00
2018-03-28T05:15:00.460Z,100.00
2018-03-28T05:17:28.240Z,100.00
2018-03-28T05:19:56.016Z,100.00
2018-03-28T05:22:23.690Z,100.00
2018-03-28T05:24:51.467Z,100.00
2018-03-28T05:27:19.220Z,100.00
2018-03-28T05:29:47.125Z,100.00
2018-03-28T05:32:14.904Z,100.00
2018-03-28T05:34:42.680Z,100.00
2018-03-28T05:37:10.466Z,100.00
2018-03-28T05:39:38.340Z,100.00
2018-03-28T05:42:06.117Z,100.00
2018-03-28T05:44:34.309Z,100.00
2018-03-28T05:47:02.052Z,100.00
2018-03-28T05:49:29.862Z,100.00
2018-03-28T05:51:58.050Z,100.00
2018-03-28T05:54:25.777Z,100.00
2018-03-28T05:56:53.795Z,100.00
2018-03-28T05:59:21.535Z,100.00
2018-03-28T06:01:49.270Z,100.00
2018-03-28T06:04:16.940Z,100.00
2018-03-28T06:06:44.584Z,100.00
2018-03-28T06:09:12.391Z,100.00
2018-03-28T06:11:40.271Z,100.00
2018-03-28T06:14:08.050Z,100.00
2018-03-28T06:16:35.776Z,100.00
2018-03-28T06:19:03.515Z,100.00
2018-03-28T06:21:31.233Z,100.00
2018-03-28T06:23:59.060Z,100.00
2018-03-28T06:26:26.839Z,100.00
2018-03-28T06:28:54.720Z,100.00
2018-03-28T06:31:22.458Z,100.00
2018-03-28T06:33:50.274Z,100.00
2018-03-28T06:36:18.096Z,100.00
2018-03-28T06:38:45.972Z,100.00
2018-03-28T06:41:13.605Z,100.00
2018-03-28T06:43:41.271Z,100.00
2018-03-28T06:46:09.025Z,100.00
2018-03-28T06:48:37.131Z,100.00
2018-03-28T06:51:04.922Z,100.00
2018-03-28T06:53:32.710Z,100.00
2018-03-28T06:56:00.480Z,100.00
2018-03-28T06:58:28.310Z,100.00
2018-03-28T07:00:56.142Z,100.00
2018-03-28T07:03:23.915Z,100.00
2018-03-28T07:05:51.797Z,100.00
2018-03-28T07:08:19.536Z,100.00
2018-03-28T07:10:47.219Z,100.00
2018-03-28T07:13:15.028Z,100.00
2018-03-28T07:15:42.749Z,100.00
2018-03-28T07:18:10.486Z,100.00
2018-03-28T07:20:38.258Z,100.00
2018-03-28T07:23:05.933Z,100.00
2018-03-28T07:25:33.716Z,100.00
2018-03-28T07:28:01.459Z,100.00
2018-03-28T07:30:29.272Z,100.00
2018-03-28T07:32:57.045Z,100.00
2018-03-28T07:35:24.827Z,100.00
2018-03-28T07:37:52.575Z,100.00
2018-03-28T07:40:20.343Z,100.00
2018-03-28T07:42:48.157Z,100.00
2018-03-28T07:45:15.901Z,100.00
2018-03-28T07:47:43.712Z,100.00
2018-03-28T07:50:11.516Z,100.00
2018-03-28T07:52:39.167Z,100.00
2018-03-28T07:55:06.946Z,100.00
2018-03-28T07:57:34.728Z,100.00
2018-03-28T08:00:02.455Z,100.00
2018-03-28T08:02:30.181Z,100.00
2018-03-28T08:04:58.056Z,100.00
2018-03-28T08:07:25.730Z,100.00
2018-03-28T08:09:53.924Z,100.00
2018-03-28T08:12:21.698Z,100.00
2018-03-28T08:14:49.423Z,100.00
2018-03-28T08:17:17.357Z,100.00
2018-03-28T08:19:45.082Z,100.00
2018-03-28T08:22:12.912Z,100.00
2018-03-28T08:24:40.641Z,100.00
2018-03-28T08:27:08.469Z,100.00
2018-03-28T08:29:36.351Z,100.00
2018-03-28T08:32:04.018Z,100.00
2018-03-28T08:34:31.758Z,100.00
2018-03-28T08:36:59.579Z,100.00
2018-03-28T08:39:27.358Z,100.00
2018-03-28T08:41:55.082Z,100.00
2018-03-28T08:44:22.918Z,100.00
2018-03-28T08:46:50.692Z,100.00
2018-03-28T08:49:18.471Z,100.00
2018-03-28T08:51:46.349Z,100.00
2018-03-28T08:54:14.030Z,100.00
2018-03-28T08:56:41.801Z,100.00
2018-03-28T08:59:09.571Z,100.00
2018-03-28T09:01:37.264Z,100.00
2018-03-28T09:04:05.140Z,100.00
2018-03-28T09:06:32.804Z,100.00
2018-03-28T09:09:00.694Z,100.00
2018-03-28T09:11:28.370Z,100.00
2018-03-28T09:13:56.044Z,100.00
2018-03-28T09:16:23.925Z,100.00
2018-03-28T09:18:51.657Z,100.00
2018-03-28T09:21:19.484Z,100.00
2018-03-28T09:23:47.362Z,100.00
2018-03-28T09:26:15.035Z,100.00
2018-03-28T09:28:42.919Z,100.00
2018-03-28T09:31:10.638Z,100.00
2018-03-28T09:33:38.472Z,100.00
2018-03-28T09:36:06.224Z,100.00
2018-03-28T09:38:34.030Z,98.82
2018-03-28T09:41:01.707Z,99.43
2018-03-28T09:43:29.450Z,96.18
2018-03-28T09:45:57.260Z,95.40
2018-03-28T09:48:25.040Z,95.62
2018-03-28T09:50:52.714Z,97.63
2018-03-28T09:53:20.493Z,98.42
2018-03-28T09:55:48.175Z,93.92
2018-03-28T09:58:15.840Z,94.96
2018-03-28T10:00:46.535Z,92.49
2018-03-28T10:03:14.369Z,90.77
2018-03-28T10:05:42.175Z,91.72
2018-03-28T10:08:09.891Z,92.69
2018-03-28T10:10:37.700Z,91.06
2018-03-28T10:13:05.371Z,91.05
2018-03-28T10:15:33.156Z,90.75
2018-03-28T10:18:01.445Z,92.11
2018-03-28T10:20:29.221Z,88.51
2018-03-28T10:22:57.001Z,93.12
2018-03-28T10:25:24.831Z,89.03
2018-03-28T10:27:52.720Z,87.99
2018-03-28T10:30:20.336Z,86.38
2018-03-28T10:32:48.216Z,85.53
2018-03-28T10:37:43.052Z,88.14
2018-03-28T10:40:10.721Z,87.29
2018-03-28T10:42:38.509Z,89.20
2018-03-28T10:45:06.390Z,90.40
2018-03-28T10:47:34.167Z,87.55
2018-03-28T10:50:02.045Z,87.16
2018-03-28T10:52:29.805Z,87.43
2018-03-28T10:54:57.423Z,85.47
2018-03-28T10:57:25.077Z,90.10
2018-03-28T10:59:52.851Z,89.63
2018-03-28T11:02:20.620Z,88.19
2018-03-28T11:04:48.443Z,89.40
2018-03-28T11:07:16.187Z,86.36
2018-03-28T11:09:43.960Z,87.45
2018-03-28T11:12:11.740Z,87.18
2018-03-28T11:14:39.470Z,84.31
2018-03-28T11:17:07.297Z,85.93
2018-03-28T11:19:35.175Z,83.97
2018-03-28T11:22:02.956Z,86.97
2018-03-28T11:24:30.685Z,85.17
2018-03-28T11:26:58.755Z,83.52
2018-03-28T11:29:26.390Z,85.21
2018-03-28T11:31:54.077Z,84.41
2018-03-28T11:34:21.950Z,81.54
2018-03-28T11:36:49.846Z,82.00
2018-03-28T11:39:17.504Z,85.89
2018-03-28T11:41:45.283Z,84.69
2018-03-28T11:44:12.950Z,86.14
2018-03-28T11:46:40.709Z,89.81
2018-03-28T11:49:08.408Z,90.32
2018-03-28T11:51:36.090Z,89.45
2018-03-28T11:54:03.766Z,88.72
2018-03-28T11:56:31.703Z,85.32
2018-03-28T11:58:59.523Z,88.27
2018-03-28T12:01:27.211Z,89.94
2018-03-28T12:03:55.590Z,88.54
2018-03-28T12:06:23.272Z,87.09
2018-03-28T12:08:51.041Z,89.03
2018-03-28T12:11:18.902Z,89.29
2018-03-28T12:13:46.599Z,89.59
2018-03-28T12:16:14.362Z,91.73
2018-03-28T12:18:42.262Z,90.31
2018-03-28T12:21:09.936Z,90.44
2018-03-28T12:23:37.658Z,91.18
2018-03-28T12:26:05.383Z,89.70
2018-03-28T12:28:33.069Z,87.40
2018-03-28T12:31:00.846Z,93.12
2018-03-28T12:33:28.619Z,91.56
2018-03-28T12:35:56.445Z,91.37
2018-03-28T12:38:24.280Z,91.56
2018-03-28T12:40:52.055Z,88.78
2018-03-28T12:43:19.892Z,89.18
2018-03-28T12:45:47.713Z,90.64
2018-03-28T12:48:15.491Z,88.76
2018-03-28T12:50:43.371Z,90.40
2018-03-28T12:53:11.157Z,89.03
2018-03-28T12:55:39.128Z,89.92
2018-03-28T12:58:06.703Z,91.55
2018-03-28T13:00:34.483Z,86.59
2018-03-28T13:03:02.260Z,84.53
2018-03-28T13:05:30.038Z,86.49
2018-03-28T13:07:58.333Z,90.60
2018-03-28T13:10:26.210Z,91.48
2018-03-28T13:12:53.992Z,88.37
2018-03-28T13:15:21.811Z,89.64
2018-03-28T13:17:49.648Z,87.74
2018-03-28T13:20:17.422Z,94.35
2018-03-28T13:22:45.610Z,94.14
2018-03-28T13:25:13.394Z,96.23
2018-03-28T13:27:41.133Z,92.35
2018-03-28T13:30:09.252Z,93.68
2018-03-28T13:32:37.030Z,90.84
2018-03-28T13:35:04.914Z,92.61
2018-03-28T13:37:32.734Z,95.38
2018-03-28T13:40:00.361Z,96.29
2018-03-28T13:42:28.141Z,96.62
2018-03-28T13:44:55.826Z,96.35
2018-03-28T13:47:23.551Z,98.00
2018-03-28T13:49:51.374Z,99.75
2018-03-28T13:52:19.112Z,100.00
2018-03-28T13:54:46.832Z,100.00
2018-03-28T13:57:14.894Z,100.00
2018-03-28T13:59:42.686Z,99.80
2018-03-28T14:02:10.466Z,98.90
2018-03-28T14:04:38.244Z,99.06
2018-03-28T14:07:06.084Z,100.00
2018-03-28T14:09:33.903Z,100.00
2018-03-28T14:12:01.681Z,100.00
2018-03-28T14:14:29.511Z,100.00
2018-03-28T14:16:57.238Z,100.00
2018-03-28T14:19:24.913Z,100.00
2018-03-28T14:21:52.751Z,100.00
2018-03-28T14:24:20.532Z,100.00
2018-03-28T14:26:48.248Z,100.00
2018-03-28T14:29:16.127Z,100.00
2018-03-28T14:31:43.905Z,100.00
2018-03-28T14:34:11.684Z,100.00
2018-03-28T14:36:39.356Z,100.00
2018-03-28T14:39:07.134Z,100.00
2018-03-28T14:41:34.925Z,100.00
2018-03-28T14:44:02.691Z,100.00
2018-03-28T14:46:30.367Z,100.00
2018-03-28T14:48:58.094Z,100.00
2018-03-28T14:51:25.925Z,100.00
2018-03-28T14:53:53.700Z,100.00
2018-03-28T14:56:21.486Z,100.00
2018-03-28T14:58:49.332Z,100.00
2018-03-28T15:01:17.139Z,100.00
2018-03-28T15:03:44.917Z,100.00
2018-03-28T15:06:12.796Z,100.00
2018-03-28T15:08:40.536Z,100.00
2018-03-28T15:11:08.246Z,100.00
2018-03-28T15:13:35.922Z,100.00
2018-03-28T15:16:03.653Z,100.00
2018-03-28T15:21:09.392Z,100.00
2018-03-28T15:23:37.647Z,100.00
2018-03-28T15:26:05.460Z,100.00
2018-03-28T15:28:33.129Z,100.00
2018-03-28T15:31:01.326Z,100.00
2018-03-28T15:33:29.001Z,100.00
2018-03-28T15:35:56.676Z,100.00
2018-03-28T15:38:24.563Z,100.00
2018-03-28T15:40:52.336Z,100.00
2018-03-28T15:43:20.217Z,100.00
2018-03-28T15:45:48.405Z,100.00
2018-03-28T15:48:16.181Z,100.00
2018-03-28T15:50:43.853Z,100.00
2018-03-28T15:53:12.101Z,100.00
2018-03-28T15:55:39.768Z,100.00
2018-03-28T15:58:07.600Z,100.00
2018-03-28T16:00:35.381Z,100.00
2018-03-28T16:03:03.120Z,100.00
2018-03-28T16:05:30.934Z,100.00
2018-03-28T16:07:59.021Z,97.26
2018-03-28T16:10:26.748Z,96.25
2018-03-28T16:12:54.435Z,96.82
2018-03-28T16:15:22.154Z,98.20
2018-03-28T16:17:49.926Z,98.85
2018-03-28T16:20:17.804Z,100.00
2018-03-28T16:22:45.587Z,100.00
2018-03-28T16:25:13.318Z,100.00
2018-03-28T16:27:41.447Z,100.00
2018-03-28T16:30:09.175Z,100.00
2018-03-28T16:32:37.007Z,100.00
2018-03-28T16:35:05.344Z,100.00
2018-03-28T16:37:33.022Z,100.00
2018-03-28T16:40:00.852Z,100.00
2018-03-28T16:42:28.522Z,100.00
2018-03-28T16:44:57.739Z,100.00
2018-03-28T16:47:25.472Z,100.00
2018-03-28T16:49:53.295Z,100.00
2018-03-28T16:52:21.072Z,100.00
2018-03-28T16:54:48.748Z,100.00
2018-03-28T16:57:16.438Z,100.00
2018-03-28T16:59:44.199Z,100.00
2018-03-28T17:02:11.974Z,100.00
2018-03-28T17:04:39.757Z,100.00
2018-03-28T17:07:07.533Z,100.00
2018-03-28T17:09:35.229Z,100.00
2018-03-28T17:12:02.995Z,100.00
2018-03-28T17:14:30.866Z,100.00
2018-03-28T17:16:58.642Z,100.00
2018-03-28T17:19:26.479Z,100.00
2018-03-28T17:21:54.216Z,100.00
2018-03-28T17:24:22.078Z,100.00
2018-03-28T17:26:49.752Z,100.00
2018-03-28T17:29:17.639Z,100.00
2018-03-28T17:31:45.411Z,100.00
2018-03-28T17:34:13.014Z,100.00
2018-03-28T17:36:40.864Z,100.00
2018-03-28T17:39:08.689Z,100.00
2018-03-28T17:41:36.523Z,100.00
2018-03-28T17:44:04.287Z,100.00
2018-03-28T17:46:32.077Z,100.00
2018-03-28T17:48:59.856Z,100.00
2018-03-28T17:51:27.633Z,100.00
2018-03-28T17:53:55.411Z,100.00
2018-03-28T17:56:23.192Z,100.00
2018-03-28T17:58:51.377Z,100.00
2018-03-28T18:01:19.112Z,100.00
2018-03-28T18:03:46.933Z,100.00
2018-03-28T18:06:14.695Z,100.00
2018-03-28T18:08:42.503Z,100.00
2018-03-28T18:11:10.369Z,100.00
2018-03-28T18:13:38.055Z,100.00
2018-03-28T18:16:05.822Z,100.00
2018-03-28T18:18:33.706Z,100.00
2018-03-28T18:21:01.489Z,100.00
2018-03-28T18:23:29.260Z,100.00
2018-03-28T18:25:56.930Z,100.00
2018-03-28T18:28:24.713Z,100.00
2018-03-28T18:30:52.490Z,100.00
2018-03-28T18:33:20.162Z,100.00
2018-03-28T18:35:48.045Z,100.00
2018-03-28T18:38:15.722Z,100.00
2018-03-28T18:40:43.503Z,100.00
2018-03-28T18:43:11.279Z,100.00
2018-03-28T18:45:39.055Z,100.00
2018-03-28T18:48:07.149Z,100.00
2018-03-28T18:50:34.921Z,100.00
2018-03-28T18:53:02.591Z,100.00
2018-03-28T18:55:30.381Z,100.00
2018-03-28T18:57:58.148Z,100.00
2018-03-28T19:00:26.031Z,100.00
2018-03-28T19:02:53.701Z,100.00
2018-03-28T19:05:21.492Z,100.00
2018-03-28T19:07:49.632Z,100.00
2018-03-28T19:10:17.352Z,100.00
2018-03-28T19:12:44.942Z,100.00
2018-03-28T19:15:12.796Z,100.00
2018-03-28T19:17:40.523Z,100.00
2018-03-28T19:20:08.257Z,100.00
2018-03-28T19:22:35.924Z,100.00
2018-03-28T19:25:03.708Z,100.00
2018-03-28T19:27:31.428Z,100.00
2018-03-28T19:29:59.261Z,100.00
2018-03-28T19:32:27.156Z,100.00
2018-03-28T19:34:54.919Z,100.00
2018-03-28T19:37:22.698Z,100.00
2018-03-28T19:39:50.373Z,100.00
2018-03-28T19:42:18.150Z,100.00
2018-03-28T19:44:46.131Z,100.00
2018-03-28T19:47:14.217Z,100.00
2018-03-28T19:49:41.891Z,100.00
2018-03-28T19:52:09.675Z,100.00
2018-03-28T19:54:37.520Z,100.00
2018-03-28T19:57:05.330Z,100.00
2018-03-28T19:59:33.004Z,100.00
2018-03-28T20:02:00.885Z,100.00
2018-03-28T20:04:28.558Z,100.00
2018-03-28T20:06:56.300Z,100.00
2018-03-28T20:09:24.116Z,100.00
2018-03-28T20:11:51.797Z,100.00
2018-03-28T20:14:19.524Z,100.00
2018-03-28T20:16:47.350Z,100.00
2018-03-28T20:19:15.129Z,100.00
2018-03-28T20:21:42.908Z,100.00
2018-03-28T20:24:10.665Z,100.00
2018-03-28T20:26:38.406Z,100.00
2018-03-28T20:29:06.038Z,100.00
2018-03-28T20:31:33.767Z,100.00
2018-03-28T20:34:01.590Z,100.00
2018-03-28T20:36:29.263Z,100.00
2018-03-28T20:38:57.263Z,100.00
2018-03-28T20:41:25.139Z,100.00
2018-03-28T20:43:52.876Z,100.00
2018-03-28T20:46:20.990Z,100.00
2018-03-28T20:48:50.977Z,100.00
2018-03-28T20:51:18.709Z,100.00
2018-03-28T20:53:46.381Z,100.00
2018-03-28T20:56:14.178Z,100.00
2018-03-28T20:58:42.985Z,100.00
2018-03-28T21:01:10.854Z,100.00
2018-03-28T21:03:38.517Z,100.00
2018-03-28T21:06:06.414Z,100.00
2018-03-28T21:08:34.588Z,100.00
2018-03-28T21:11:02.367Z,100.00
2018-03-28T21:13:30.142Z,100.00
2018-03-28T21:15:57.908Z,100.00
2018-03-28T21:18:25.651Z,100.00
2018-03-28T21:20:53.477Z,100.00
2018-03-28T21:23:21.209Z,100.00
2018-03-28T21:25:48.936Z,100.00
2018-03-28T21:28:16.712Z,100.00
2018-03-28T21:30:44.395Z,100.00
2018-03-28T21:33:12.055Z,100.00
2018-03-28T21:35:39.895Z,100.00
2018-03-28T21:38:07.608Z,100.00
2018-03-28T21:40:35.288Z,100.00
2018-03-28T21:43:03.175Z,100.00
2018-03-28T21:45:30.839Z,100.00
2018-03-28T21:47:58.624Z,100.00
2018-03-28T21:50:26.291Z,100.00
2018-03-28T21:52:54.031Z,100.00
2018-03-28T21:55:21.748Z,100.00
2018-03-28T21:57:49.534Z,100.00
2018-03-28T22:00:17.163Z,100.00
2018-03-28T22:02:44.990Z,100.00
2018-03-28T22:05:12.713Z,100.00
2018-03-28T22:07:40.334Z,100.00
2018-03-28T22:10:08.069Z,100.00
2018-03-28T22:12:36.000Z,100.00
2018-03-28T22:15:03.670Z,100.00
2018-03-28T22:17:31.496Z,100.00
2018-03-28T22:19:59.228Z,100.00
2018-03-28T22:22:26.954Z,100.00
2018-03-28T22:24:55.089Z,100.00
2018-03-28T22:27:22.836Z,100.00
2018-03-28T22:29:50.537Z,100.00
2018-03-28T22:32:18.218Z,100.00
2018-03-28T22:34:45.891Z,100.00
2018-03-28T22:37:13.624Z,100.00
2018-03-28T22:39:41.450Z,100.00
2018-03-28T22:42:09.131Z,100.00
2018-03-28T22:44:36.904Z,100.00
2018-03-28T22:47:04.682Z,100.00
2018-03-28T22:49:32.463Z,100.00
2018-03-28T22:52:00.124Z,100.00
2018-03-28T22:54:27.915Z,100.00
2018-03-28T22:56:55.754Z,100.00
2018-03-28T22:59:23.570Z,100.00
2018-03-28T23:01:51.241Z,100.00
2018-03-28T23:04:18.980Z,100.00
2018-03-28T23:06:46.592Z,100.00
2018-03-28T23:09:14.274Z,100.00
2018-03-28T23:11:42.054Z,100.00
2018-03-28T23:14:10.240Z,100.00
2018-03-28T23:16:37.917Z,100.00
2018-03-28T23:19:05.594Z,100.00
2018-03-28T23:21:33.368Z,100.00
2018-03-28T23:24:01.146Z,100.00
2018-03-28T23:26:28.925Z,100.00
2018-03-28T23:28:56.806Z,100.00
2018-03-28T23:31:24.636Z,100.00
2018-03-28T23:33:52.476Z,100.00
2018-03-28T23:36:20.579Z,100.00
2018-03-28T23:38:48.309Z,100.00
2018-03-28T23:41:16.014Z,100.00
2018-03-28T23:43:43.800Z,100.00
2018-03-28T23:46:11.464Z,100.00
2018-03-28T23:48:39.241Z,100.00
2018-03-28T23:51:06.918Z,100.00
2018-03-28T23:53:34.582Z,100.00
2018-03-28T23:56:02.267Z,100.00
2018-03-28T23:58:29.932Z,100.00
